createdAt,value
2022-12-29T00:01:07.672Z,31
2022-12-29T00:06:09.463Z,31
2022-12-29T00:11:11.390Z,31
2022-12-29T00:16:13.174Z,31
2022-12-29T00:21:14.961Z,31
2022-12-29T00:26:16.728Z,30.9
2022-12-29T00:31:19.910Z,30.9
2022-12-29T00:36:21.776Z,30.9
2022-12-29T00:41:23.544Z,30.9
2022-12-29T00:46:25.602Z,30.9
2022-12-29T00:51:27.415Z,30.9
2022-12-29T00:56:29.193Z,30.9
2022-12-29T01:01:31.204Z,30.9
2022-12-29T01:06:33.275Z,30.8
2022-12-29T01:11:35.054Z,30.8
2022-12-29T01:16:36.879Z,30.8
2022-12-29T01:21:38.957Z,30.8
2022-12-29T01:26:40.716Z,30.8
2022-12-29T01:31:42.795Z,30.8
2022-12-29T01:36:44.645Z,30.8
2022-12-29T01:41:46.443Z,30.8
2022-12-29T01:46:48.214Z,30.8
2022-12-29T01:51:50.005Z,30.7
2022-12-29T01:56:51.754Z,30.7
2022-12-29T02:01:53.875Z,30.7
2022-12-29T02:06:55.721Z,30.7
2022-12-29T02:11:57.458Z,30.6
2022-12-29T02:16:59.231Z,30.6
2022-12-29T02:22:01.108Z,30.6
2022-12-29T02:27:02.901Z,30.6
2022-12-29T02:32:04.787Z,30.6
2022-12-29T02:37:06.654Z,30.6
2022-12-29T02:42:09.041Z,30.6
2022-12-29T02:47:10.801Z,30.6
2022-12-29T02:52:12.643Z,30.6
2022-12-29T02:57:14.404Z,30.6
2022-12-29T03:02:16.294Z,30.6
2022-12-29T03:07:19.325Z,30.5
2022-12-29T03:12:21.055Z,30.5
2022-12-29T03:17:23.049Z,30.5
2022-12-29T03:22:24.861Z,30.5
2022-12-29T03:27:26.626Z,30.4
2022-12-29T03:32:28.595Z,30.4
2022-12-29T03:37:30.362Z,30.4
2022-12-29T03:42:32.105Z,30.4
2022-12-29T03:47:33.848Z,30.4
2022-12-29T03:52:35.788Z,30.4
2022-12-29T03:57:37.519Z,30.4
2022-12-29T04:02:39.663Z,30.4
2022-12-29T04:07:41.514Z,30.4
2022-12-29T04:12:43.275Z,30.4
2022-12-29T04:17:45.041Z,30.3
2022-12-29T04:22:46.816Z,30.3
2022-12-29T04:27:48.769Z,30.3
2022-12-29T04:32:50.528Z,30.3
2022-12-29T04:37:52.528Z,30.3
2022-12-29T04:42:54.278Z,30.3
2022-12-29T04:47:56.002Z,30.3
2022-12-29T04:52:57.749Z,30.3
2022-12-29T04:57:59.733Z,30.3
2022-12-29T05:03:01.917Z,30.2
2022-12-29T05:08:03.796Z,30.2
2022-12-29T05:13:05.538Z,30.2
2022-12-29T05:18:07.286Z,30.2
2022-12-29T05:23:09.446Z,30.2
2022-12-29T05:28:11.223Z,30.2
2022-12-29T05:33:12.970Z,30.1
2022-12-29T05:38:14.801Z,30.1
2022-12-29T05:43:16.541Z,30.1
2022-12-29T05:48:18.311Z,30.1
2022-12-29T05:53:20.317Z,30.1
2022-12-29T05:58:22.047Z,30.1
2022-12-29T06:03:23.851Z,30.1
2022-12-29T06:08:25.896Z,30.1
2022-12-29T06:13:27.616Z,30.1
2022-12-29T06:18:29.593Z,30.1
2022-12-29T06:23:31.558Z,30
2022-12-29T06:28:33.323Z,30
2022-12-29T06:33:35.857Z,30
2022-12-29T06:38:37.620Z,30
2022-12-29T06:43:39.592Z,30
2022-12-29T06:48:41.524Z,29.9
2022-12-29T06:53:43.250Z,29.9
2022-12-29T06:58:44.959Z,29.9
2022-12-29T07:03:46.910Z,29.9
2022-12-29T07:08:48.943Z,29.9
2022-12-29T07:13:50.634Z,29.9
2022-12-29T07:18:52.600Z,29.9
2022-12-29T07:23:54.343Z,29.9
2022-12-29T07:28:56.063Z,29.9
2022-12-29T07:33:58.016Z,29.9
2022-12-29T07:38:59.770Z,29.9
2022-12-29T07:44:01.731Z,29.8
2022-12-29T07:49:03.459Z,29.8
2022-12-29T07:54:05.209Z,29.8
2022-12-29T07:59:06.915Z,29.8
2022-12-29T08:04:08.971Z,29.8
2022-12-29T08:09:14.925Z,29.8
2022-12-29T08:14:19.704Z,29.8
2022-12-29T08:19:21.415Z,29.8
2022-12-29T08:24:23.382Z,29.8
2022-12-29T08:29:25.872Z,29.8
2022-12-29T08:34:27.875Z,29.7
2022-12-29T08:39:29.838Z,29.7
2022-12-29T08:44:31.530Z,29.7
2022-12-29T08:49:33.246Z,29.7
2022-12-29T08:54:34.982Z,29.7
2022-12-29T08:59:36.689Z,29.7
2022-12-29T09:04:38.687Z,29.6
2022-12-29T09:09:40.443Z,29.6
2022-12-29T09:14:42.474Z,29.6
2022-12-29T09:19:44.237Z,29.6
2022-12-29T09:24:45.990Z,29.6
2022-12-29T09:29:47.702Z,29.6
2022-12-29T09:34:49.467Z,29.6
2022-12-29T09:39:54.427Z,29.6
2022-12-29T09:44:56.446Z,29.6
2022-12-29T09:49:58.394Z,29.6
2022-12-29T09:55:04.066Z,29.6
2022-12-29T10:00:06.753Z,29.5
2022-12-29T10:05:08.719Z,29.5
2022-12-29T10:10:10.457Z,29.5
2022-12-29T10:15:12.177Z,29.5
2022-12-29T10:20:14.103Z,29.5
2022-12-29T10:25:15.844Z,29.5
2022-12-29T10:30:17.565Z,29.4
2022-12-29T10:35:19.538Z,29.4
2022-12-29T10:40:21.277Z,29.4
2022-12-29T10:45:22.996Z,29.4
2022-12-29T10:50:24.709Z,29.4
2022-12-29T10:55:26.448Z,29.4
2022-12-29T11:00:28.365Z,29.4
2022-12-29T11:05:30.085Z,29.4
2022-12-29T11:10:31.811Z,29.4
2022-12-29T11:15:33.514Z,29.4
2022-12-29T11:20:35.489Z,29.4
2022-12-29T11:25:37.315Z,29.3
2022-12-29T11:30:38.986Z,29.3
2022-12-29T11:35:40.917Z,29.3
2022-12-29T11:40:42.653Z,29.3
2022-12-29T11:45:44.607Z,29.3
2022-12-29T11:50:46.338Z,29.3
2022-12-29T11:55:48.066Z,29.3
2022-12-29T12:00:49.779Z,29.3
2022-12-29T12:05:51.451Z,29.3
2022-12-29T12:10:53.457Z,29.3
2022-12-29T12:15:56.898Z,29.3
2022-12-29T12:20:59.129Z,29.3
2022-12-29T12:26:01.084Z,29.3
2022-12-29T12:31:02.885Z,29.2
2022-12-29T12:36:04.637Z,29.2
2022-12-29T12:41:06.349Z,29.2
2022-12-29T12:46:08.107Z,29.2
2022-12-29T12:51:09.902Z,29.2
2022-12-29T12:56:11.845Z,29.2
2022-12-29T13:01:13.839Z,29.2
2022-12-29T13:06:15.782Z,29.1
2022-12-29T13:11:17.482Z,29.1
2022-12-29T13:16:19.432Z,29.1
2022-12-29T13:21:21.145Z,29.1
2022-12-29T13:26:22.870Z,29.1
2022-12-29T13:31:25.026Z,29.1
2022-12-29T13:36:26.722Z,29.1
2022-12-29T13:41:28.417Z,29.1
2022-12-29T13:46:30.330Z,29.1
2022-12-29T13:51:32.015Z,29.1
2022-12-29T13:56:33.733Z,29.1
2022-12-29T14:01:35.474Z,29.1
2022-12-29T14:06:37.240Z,29
2022-12-29T14:11:38.984Z,29
2022-12-29T14:16:40.740Z,29
2022-12-29T14:21:42.485Z,29
2022-12-29T14:26:44.193Z,29
2022-12-29T14:31:45.916Z,29
2022-12-29T14:36:47.868Z,29
2022-12-29T14:41:49.603Z,28.9
2022-12-29T14:46:51.360Z,28.9
2022-12-29T14:51:53.078Z,28.9
2022-12-29T14:56:55.037Z,28.9
2022-12-29T15:01:56.857Z,28.9
2022-12-29T15:06:58.893Z,28.9
2022-12-29T15:12:00.654Z,28.9
2022-12-29T15:17:02.432Z,28.9
2022-12-29T15:22:04.419Z,28.9
2022-12-29T15:27:06.138Z,28.9
2022-12-29T15:32:07.889Z,28.9
2022-12-29T15:37:09.595Z,28.9
2022-12-29T15:42:11.350Z,28.8
2022-12-29T15:47:13.076Z,28.8
2022-12-29T15:52:14.770Z,28.8
2022-12-29T15:57:16.472Z,28.8
2022-12-29T16:02:18.327Z,28.8
2022-12-29T16:07:20.127Z,28.8
2022-12-29T16:12:21.836Z,28.8
2022-12-29T16:17:23.535Z,28.7
2022-12-29T16:22:25.232Z,28.7
2022-12-29T16:27:27.172Z,28.7
2022-12-29T16:32:28.879Z,28.7
2022-12-29T16:37:30.811Z,28.7
2022-12-29T16:42:32.549Z,28.7
2022-12-29T16:47:34.216Z,28.7
2022-12-29T16:52:35.890Z,28.7
2022-12-29T16:57:37.594Z,28.7
2022-12-29T17:02:39.511Z,28.7
2022-12-29T17:07:41.344Z,28.7
2022-12-29T17:12:43.061Z,28.7
2022-12-29T17:17:44.987Z,28.7
2022-12-29T17:22:46.672Z,30.3
2022-12-29T17:27:48.685Z,33
2022-12-29T17:32:48.897Z,35.9
2022-12-29T17:37:49.453Z,38.7
2022-12-29T17:42:50.090Z,41.6
2022-12-29T17:47:50.757Z,43.6
2022-12-29T17:52:51.455Z,43.9
2022-12-29T17:57:52.179Z,43.9
2022-12-29T18:02:53.062Z,43.3
2022-12-29T18:07:54.074Z,43.7
2022-12-29T18:12:54.770Z,44.5
2022-12-29T18:17:55.520Z,45.4
2022-12-29T18:22:56.472Z,45.5
2022-12-29T18:27:57.243Z,44.5
2022-12-29T18:32:57.684Z,41.1
2022-12-29T18:37:58.304Z,41.1
2022-12-29T18:42:58.745Z,41
2022-12-29T18:47:59.184Z,41.7
2022-12-29T18:53:03.691Z,41.1
2022-12-29T18:58:04.425Z,40.9
2022-12-29T19:03:04.914Z,40.9
2022-12-29T19:08:05.583Z,40.9
2022-12-29T19:13:06.225Z,40.8
2022-12-29T19:18:42.212Z,40.8
2022-12-29T19:23:43.489Z,40.7
2022-12-29T19:28:44.126Z,40.7
2022-12-29T19:33:44.596Z,40.6
2022-12-29T19:38:45.241Z,40.6
2022-12-29T19:43:45.887Z,40.5
2022-12-29T19:48:46.551Z,40.4
2022-12-29T19:53:47.257Z,40.4
2022-12-29T19:58:48.121Z,40.3
2022-12-29T20:03:48.794Z,40.2
2022-12-29T20:08:49.431Z,40.2
2022-12-29T20:13:50.117Z,40.1
2022-12-29T20:18:50.540Z,40.1
2022-12-29T20:23:50.961Z,40
2022-12-29T20:28:51.590Z,39.9
2022-12-29T20:33:52.212Z,39.9
2022-12-29T20:38:52.880Z,39.8
2022-12-29T20:43:53.366Z,39.7
2022-12-29T20:48:53.773Z,39.7
2022-12-29T20:53:54.473Z,39.6
2022-12-29T21:04:25.447Z,39.4
2022-12-29T21:09:26.126Z,39.4
2022-12-29T21:14:26.708Z,39.3
2022-12-29T21:19:27.278Z,39.2
2022-12-29T21:24:27.864Z,39.1
2022-12-29T21:29:28.501Z,39.1
2022-12-29T21:34:29.131Z,39
2022-12-29T21:39:29.740Z,38.7
2022-12-29T21:44:30.284Z,37.4
2022-12-29T21:49:30.857Z,35.9
2022-12-29T21:54:31.331Z,35.4
2022-12-29T21:59:31.789Z,35.3
2022-12-29T22:04:32.239Z,35.2
2022-12-29T22:09:32.696Z,35.1
2022-12-29T22:14:32.891Z,35.1
2022-12-29T22:19:33.094Z,35
2022-12-29T22:24:33.295Z,34.9
2022-12-29T22:29:33.517Z,34.9
2022-12-29T22:34:33.696Z,34.8
2022-12-29T22:39:34.131Z,34.7
2022-12-29T22:44:34.562Z,34.7
2022-12-29T22:49:34.998Z,34.6
2022-12-29T22:54:35.422Z,34.6
2022-12-29T22:59:35.873Z,34.5
2022-12-29T23:05:02.082Z,34.4
2022-12-29T23:10:03.268Z,34.4
2022-12-29T23:15:03.734Z,34.3
2022-12-29T23:20:04.146Z,34.2
2022-12-29T23:25:04.591Z,34.2
2022-12-29T23:30:06.466Z,34.2
2022-12-29T23:35:08.292Z,34.1
2022-12-29T23:40:10.109Z,34.1
2022-12-29T23:45:11.955Z,34
2022-12-29T23:50:12.135Z,33.9
2022-12-29T23:55:14.216Z,33.9
